Time;durP1;ratioP1;P1;durP2;ratioP2;P2;SDS_P1;SDS_P2;PMS_P1;PMS_P2;Temp;Humidity;BMP_temperature;BMP_pressure;BME280_temperature;BME280_humidity;BME280_pressure;Samples;Min_cycle;Max_cycle;Signal;HPM_P1;HPM_P2
2021/06/16 00:01:04;;;;;;;;;;;;;;;-142.75;63.44;77338.06;5053564;28;20004;-76
2021/06/16 00:03:29;;;;;;;;;;;;;;;-142.75;63.50;77338.06;5053736;28;19958;-75
2021/06/16 00:05:54;;;;;;;;;;;;;;;-142.75;63.64;77338.06;5069829;28;19912;-76
2021/06/16 00:08:19;;;;;;;;;;;;;;;-142.75;63.68;77330.19;5055904;28;20384;-75
2021/06/16 00:10:45;;;;;;;;;;;;;;;-142.75;63.92;77338.06;5063426;28;19913;-75
2021/06/16 00:13:10;;;;;;;;;;;;;;;-142.75;63.81;77336.09;5063887;28;19916;-76
2021/06/16 00:15:37;;;;;;;;;;;;;;;-142.75;64.06;77334.13;5053710;28;19959;-75
2021/06/16 00:18:03;;;;;;;;;;;;;;;-142.75;64.16;77338.06;5063740;28;19916;-76
2021/06/16 00:20:29;;;;;;;;;;;;;;;-142.75;64.60;77347.91;5064933;28;19913;-76
2021/06/16 00:22:54;;;;;;;;;;;;;;;-142.75;64.63;77347.91;5035443;28;19917;-75
2021/06/16 00:25:20;;;;;;;;;;;;;;;-142.75;64.38;77342.00;5053441;28;19912;-76
2021/06/16 00:27:45;;;;;;;;;;;;;;;-142.75;64.41;77342.00;5046471;28;19939;-75
2021/06/16 00:30:10;;;;;;;;;;;;;;;-142.75;64.47;77342.00;5072766;28;19913;-75
2021/06/16 00:32:36;;;;;;;;;;;;;;;-142.75;64.42;77338.06;5067759;28;19920;-75
2021/06/16 00:35:02;;;;;;;;;;;;;;;-142.75;64.37;77336.09;5044898;28;19913;-75
2021/06/16 00:37:27;;;;;;;;;;;;;;;-142.75;64.75;77338.06;5070173;28;20531;-74
2021/06/16 00:39:53;;;;;;;;;;;;;;;-142.75;64.69;77334.13;5041118;28;19913;-74
2021/06/16 00:42:22;;;;;;;;;;;;;;;-142.75;64.22;77330.19;5073466;28;19912;-75
2021/06/16 00:44:47;;;;;;;;;;;;;;;-142.75;64.24;77328.22;5072971;28;20325;-75
2021/06/16 00:47:12;;;;;;;;;;;;;;;-142.75;64.00;77340.03;5073024;28;20018;-75
2021/06/16 00:49:37;;;;;;;;;;;;;;;-142.75;63.87;77342.00;5064116;28;19912;-74
2021/06/16 00:52:03;;;;;;;;;;;;;;;-142.75;63.80;77336.09;5053969;28;19919;-76
2021/06/16 00:54:29;;;;;;;;;;;;;;;-142.75;63.79;77342.00;5061073;28;19946;-76
2021/06/16 00:56:55;;;;;;;;;;;;;;;-142.75;64.20;77351.84;5052640;28;19913;-74
2021/06/16 00:59:20;;;;;;;;;;;;;;;-142.75;64.62;77351.84;5052736;28;19966;-75
2021/06/16 01:01:46;;;;;;;;;;;;;;;-142.75;64.30;77355.78;5052403;28;20352;-76
2021/06/16 01:04:22;;;;;;;;;;;;;;;-142.75;63.89;77351.84;5034734;28;19919;-75
2021/06/16 01:06:49;;;;;;;;;;;;;;;-142.75;63.55;77342.00;5040282;28;19912;-75
2021/06/16 01:09:16;;;;;;;;;;;;;;;-142.75;63.24;77342.00;5057993;28;19912;-75
2021/06/16 01:11:57;;;;;;;;;;;;;;;-142.75;63.12;77334.13;5049745;28;19919;-75
2021/06/16 01:14:28;;;;;;;;;;;;;;;-142.75;62.83;77322.31;5068744;28;19943;-76
2021/06/16 01:16:56;;;;;;;;;;;;;;;-142.75;62.83;77322.31;5039978;28;20586;-75
2021/06/16 01:19:24;;;;;;;;;;;;;;;-142.75;63.00;77316.41;5049703;28;19967;-74
2021/06/16 01:21:54;;;;;;;;;;;;;;;-142.75;63.15;77310.50;5041771;28;20324;-75
2021/06/16 01:24:19;;;;;;;;;;;;;;;-142.75;63.15;77306.56;5061693;28;19923;-75
2021/06/16 01:26:50;;;;;;;;;;;;;;;-142.75;63.42;77298.69;5063992;28;20362;-75
2021/06/16 01:29:24;;;;;;;;;;;;;;;-142.75;63.60;77312.47;5065787;28;19912;-75
2021/06/16 01:31:50;;;;;;;;;;;;;;;-142.75;64.09;77310.50;5068501;28;19913;-75
2021/06/16 01:34:15;;;;;;;;;;;;;;;-142.75;64.26;77310.50;5054983;28;19913;-75
2021/06/16 01:36:43;;;;;;;;;;;;;;;-142.75;64.15;77324.28;5052143;28;20385;-75
2021/06/16 01:39:09;;;;;;;;;;;;;;;-142.75;64.45;77334.13;5051846;28;20409;-74
2021/06/16 01:41:34;;;;;;;;;;;;;;;-142.75;64.63;77342.00;5066670;28;19916;-76
2021/06/16 01:44:00;;;;;;;;;;;;;;;-142.75;64.50;77355.78;5068330;28;19913;-74
2021/06/16 01:46:25;;;;;;;;;;;;;;;-142.75;64.68;77361.69;5060514;28;19912;-75
2021/06/16 01:48:51;;;;;;;;;;;;;;;-142.75;64.91;77365.63;5070781;28;19991;-75
2021/06/16 01:51:17;;;;;;;;;;;;;;;-142.75;64.96;77369.56;5035135;28;19975;-75
2021/06/16 01:53:42;;;;;;;;;;;;;;;-142.75;65.10;77371.53;5066978;28;20003;-75
2021/06/16 01:56:08;;;;;;;;;;;;;;;-142.75;65.10;77373.50;5067018;28;19912;-75
2021/06/16 01:58:34;;;;;;;;;;;;;;;-142.75;65.31;77373.50;5064068;28;19927;-75
2021/06/16 02:01:00;;;;;;;;;;;;;;;-142.75;65.64;77375.47;5051326;28;19916;-75
2021/06/16 02:03:25;;;;;;;;;;;;;;;-142.75;65.50;77373.50;5043524;28;19920;-75
2021/06/16 02:05:50;;;;;;;;;;;;;;;-142.75;65.68;77377.44;5061174;28;19919;-74
2021/06/16 02:08:18;;;;;;;;;;;;;;;-142.75;66.08;77349.88;5070647;28;19912;-75
2021/06/16 02:10:47;;;;;;;;;;;;;;;-142.75;65.82;77322.31;5052655;28;19916;-74
2021/06/16 02:13:13;;;;;;;;;;;;;;;-142.75;65.26;77310.50;5064337;28;20027;-75
2021/06/16 02:15:42;;;;;;;;;;;;;;;-142.75;65.02;77286.88;5040987;28;20382;-75
2021/06/16 02:18:08;;;;;;;;;;;;;;;-142.75;64.99;77277.03;5046000;28;19935;-73
2021/06/16 02:20:33;;;;;;;;;;;;;;;-142.75;65.08;77275.06;5070766;28;19999;-74
2021/06/16 02:22:59;;;;;;;;;;;;;;;-142.75;64.60;77259.31;5071088;28;19912;-74
2021/06/16 02:25:25;;;;;;;;;;;;;;;-142.75;63.95;77239.63;5051362;28;19924;-73
2021/06/16 02:27:50;;;;;;;;;;;;;;;-142.75;63.68;77221.91;5050998;28;20405;-75
2021/06/16 02:30:16;;;;;;;;;;;;;;;-142.75;63.61;77221.91;5050834;28;19970;-75
2021/06/16 02:32:42;;;;;;;;;;;;;;;-142.75;64.57;77239.63;5053697;28;20374;-74
2021/06/16 02:35:07;;;;;;;;;;;;;;;-142.75;64.78;77265.22;5055160;28;19919;-76
2021/06/16 02:37:35;;;;;;;;;;;;;;;-142.75;64.83;77263.25;5063115;28;19924;-75
2021/06/16 02:40:06;;;;;;;;;;;;;;;-142.75;64.91;77275.06;5068565;28;20001;-75
2021/06/16 02:42:31;;;;;;;;;;;;;;;-142.75;65.12;77292.78;5051179;28;19912;-75
2021/06/16 02:44:59;;;;;;;;;;;;;;;-142.75;65.13;77300.66;5052323;28;19912;-75
2021/06/16 02:47:25;;;;;;;;;;;;;;;-142.75;65.31;77310.50;5070679;28;20312;-74
2021/06/16 02:49:55;;;;;;;;;;;;;;;-142.75;65.44;77318.38;5070318;28;19927;-74
2021/06/16 02:52:21;;;;;;;;;;;;;;;-142.75;65.62;77324.28;5052703;28;19912;-75
2021/06/16 02:54:51;;;;;;;;;;;;;;;-142.75;65.58;77322.31;5052812;28;20365;-74
2021/06/16 02:57:20;;;;;;;;;;;;;;;-142.75;66.05;77322.31;5052160;28;20039;-75
2021/06/16 02:59:50;;;;;;;;;;;;;;;-142.75;66.27;77322.31;5070463;28;19913;-73
2021/06/16 03:02:16;;;;;;;;;;;;;;;-142.75;66.21;77320.34;5070519;28;19926;-75
2021/06/16 03:04:42;;;;;;;;;;;;;;;-142.75;66.36;77322.31;5052393;28;19912;-74
2021/06/16 03:07:08;;;;;;;;;;;;;;;-142.75;66.98;77306.56;5055001;28;19967;-75
2021/06/16 03:09:33;;;;;;;;;;;;;;;-142.75;67.01;77302.63;5059023;28;19959;-75
2021/06/16 03:11:59;;;;;;;;;;;;;;;-142.75;66.89;77308.53;5050409;28;20333;-76
2021/06/16 03:14:25;;;;;;;;;;;;;;;-142.75;67.04;77302.63;5032712;28;19913;-75
2021/06/16 03:16:51;;;;;;;;;;;;;;;-142.75;66.85;77308.53;5050322;28;20369;-74
2021/06/16 03:19:16;;;;;;;;;;;;;;;-142.75;67.07;77300.66;5056940;28;19995;-75
2021/06/16 03:21:42;;;;;;;;;;;;;;;-142.75;67.23;77304.59;5070008;28;19919;-74
2021/06/16 03:24:09;;;;;;;;;;;;;;;-142.75;66.64;77280.97;5070200;28;19965;-75
2021/06/16 03:26:34;;;;;;;;;;;;;;;-142.75;66.10;77279.00;5032783;28;19947;-74
2021/06/16 03:29:00;;;;;;;;;;;;;;;-142.75;65.80;77290.81;5032529;28;20404;-75
2021/06/16 03:31:25;;;;;;;;;;;;;;;-142.75;66.81;77294.75;5063749;28;19912;-75
2021/06/16 03:33:52;;;;;;;;;;;;;;;-142.75;66.71;77279.00;5052038;28;19916;-73
2021/06/16 03:36:18;;;;;;;;;;;;;;;-142.75;66.36;77263.25;5052157;28;20001;-74
2021/06/16 03:38:44;;;;;;;;;;;;;;;-142.75;66.36;77255.38;5070169;28;19978;-75
2021/06/16 03:41:10;;;;;;;;;;;;;;;-142.75;66.16;77267.19;5064290;28;20395;-74
2021/06/16 03:43:35;;;;;;;;;;;;;;;-142.75;66.04;77279.00;5050665;28;19919;-74
2021/06/16 03:46:04;;;;;;;;;;;;;;;-142.75;66.37;77286.88;5052924;28;19912;-74
2021/06/16 03:48:30;;;;;;;;;;;;;;;-142.75;66.80;77279.00;5050144;28;19912;-74
2021/06/16 03:50:56;;;;;;;;;;;;;;;-142.75;66.70;77255.38;5031795;28;19959;-73
2021/06/16 03:53:21;;;;;;;;;;;;;;;-142.75;66.20;77235.69;5050176;28;19956;-75
2021/06/16 03:55:47;;;;;;;;;;;;;;;-142.75;65.96;77227.81;5050058;28;20633;-76
2021/06/16 03:58:12;;;;;;;;;;;;;;;-142.75;65.65;77216.00;5068318;28;19985;-75
2021/06/16 04:00:39;;;;;;;;;;;;;;;-142.75;65.42;77208.13;5051682;28;20286;-75
2021/06/16 04:03:08;;;;;;;;;;;;;;;-142.75;65.15;77200.25;5043517;28;19959;-75
2021/06/16 04:05:33;;;;;;;;;;;;;;;-142.75;65.14;77192.38;5049928;28;20016;-74
2021/06/16 04:07:59;;;;;;;;;;;;;;;-142.75;65.31;77196.31;5049644;28;19948;-74
2021/06/16 04:10:25;;;;;;;;;;;;;;;-142.75;65.00;77182.53;5052625;28;19963;-74
2021/06/16 04:12:50;;;;;;;;;;;;;;;-142.75;65.18;77178.59;5036349;28;19912;-74
2021/06/16 04:15:17;;;;;;;;;;;;;;;-142.75;64.90;77168.75;5053544;28;19926;-77
2021/06/16 04:17:42;;;;;;;;;;;;;;;-142.75;65.08;77145.13;5035610;28;19924;-76
2021/06/16 04:20:07;;;;;;;;;;;;;;;-142.75;64.27;77135.28;5042471;23;19921;-73
2021/06/16 04:22:33;;;;;;;;;;;;;;;-142.75;63.47;77111.66;5012064;28;20367;-72
2021/06/16 04:24:59;;;;;;;;;;;;;;;-142.75;62.75;77095.91;5012176;28;19960;-72
2021/06/16 04:27:24;;;;;;;;;;;;;;;-142.75;62.33;77070.31;5012396;28;20302;-73
2021/06/16 04:29:49;;;;;;;;;;;;;;;-142.75;62.06;77056.53;5013491;28;19921;-74
2021/06/16 04:32:14;;;;;;;;;;;;;;;-142.75;61.56;77046.69;5012565;28;19917;-73
2021/06/16 04:34:40;;;;;;;;;;;;;;;-142.75;61.45;77036.84;5013723;28;19921;-73
2021/06/16 04:37:05;;;;;;;;;;;;;;;-142.75;61.47;77042.75;5011764;28;19913;-74
2021/06/16 04:39:30;;;;;;;;;;;;;;;-142.75;60.41;77038.81;5013717;28;19920;-72
2021/06/16 04:41:56;;;;;;;;;;;;;;;-142.75;60.56;77034.88;5013871;28;19948;-72
2021/06/16 04:44:21;;;;;;;;;;;;;;;-142.75;60.38;77027.00;5012717;28;19921;-73
2021/06/16 04:46:47;;;;;;;;;;;;;;;-142.75;60.55;77023.06;5013567;28;19944;-73
2021/06/16 04:49:13;;;;;;;;;;;;;;;-142.75;60.24;77019.13;5013500;28;19913;-73
2021/06/16 04:51:38;;;;;;;;;;;;;;;-142.75;60.22;77011.25;5013101;28;20005;-73
2021/06/16 04:54:03;;;;;;;;;;;;;;;-142.75;60.00;76997.47;5013690;28;19913;-73
2021/06/16 04:56:28;;;;;;;;;;;;;;;-142.75;60.23;76981.72;5013148;28;19951;-71
2021/06/16 04:58:54;;;;;;;;;;;;;;;-142.75;59.91;76969.91;5012041;28;19965;-73
2021/06/16 05:01:19;;;;;;;;;;;;;;;-142.75;59.40;76967.94;5011999;28;19929;-73
2021/06/16 05:03:44;;;;;;;;;;;;;;;-142.75;59.44;76958.09;5013016;28;19936;-73
2021/06/16 05:06:09;;;;;;;;;;;;;;;-142.75;59.84;76942.34;5012080;28;20393;-74
2021/06/16 05:08:35;;;;;;;;;;;;;;;-142.75;59.74;76932.50;5013118;28;19936;-72
2021/06/16 05:11:00;;;;;;;;;;;;;;;-142.75;59.63;76912.81;5010783;28;19968;-73
2021/06/16 05:13:26;;;;;;;;;;;;;;;-142.75;59.25;76895.09;5012502;28;19914;-73
2021/06/16 05:15:52;;;;;;;;;;;;;;;-142.75;59.02;76873.44;5010336;28;20052;-73
2021/06/16 05:18:18;;;;;;;;;;;;;;;-142.75;59.00;76863.59;5011620;28;20007;-73
2021/06/16 05:20:43;;;;;;;;;;;;;;;-142.75;57.97;76855.72;5009878;28;20474;-73
2021/06/16 05:23:08;;;;;;;;;;;;;;;-142.75;58.26;76849.81;5011968;28;19932;-73
2021/06/16 05:25:34;;;;;;;;;;;;;;;-142.75;58.71;76824.22;5011687;28;20008;-73
2021/06/16 05:28:00;;;;;;;;;;;;;;;-142.75;57.85;76816.34;5011770;28;20306;-73
2021/06/16 05:30:25;;;;;;;;;;;;;;;-142.75;57.00;76804.53;5010001;28;19913;-74
2021/06/16 05:32:50;;;;;;;;;;;;;;;-142.75;57.43;76790.78;5011538;28;20426;-74
2021/06/16 05:35:15;;;;;;;;;;;;;;;-142.75;58.34;76773.06;5010629;28;19913;-73
2021/06/16 05:37:45;;;;;;;;;;;;;;;-142.75;56.54;76753.38;5011522;28;20366;-73
2021/06/16 05:40:10;;;;;;;;;;;;;;;-142.75;57.18;76727.78;5009764;28;19913;-72
2021/06/16 05:42:36;;;;;;;;;;;;;;;-142.75;56.78;76696.28;5011652;28;19920;-73
2021/06/16 05:45:01;;;;;;;;;;;;;;;-142.75;56.48;76676.59;5010395;28;19917;-73
2021/06/16 05:47:26;;;;;;;;;;;;;;;-142.75;55.76;76647.06;5009997;28;19921;-73
2021/06/16 05:49:51;;;;;;;;;;;;;;;-142.75;54.57;76621.47;5010215;28;20329;-72
2021/06/16 05:52:17;;;;;;;;;;;;;;;-142.75;53.79;76591.94;5009726;28;20327;-72
2021/06/16 05:54:42;;;;;;;;;;;;;;;-142.75;53.69;76574.22;5012075;28;19940;-74
2021/06/16 05:57:07;;;;;;;;;;;;;;;-142.75;52.94;76566.34;5011941;28;19913;-74
2021/06/16 05:59:35;;;;;;;;;;;;;;;-142.75;53.20;76538.78;5012118;28;20291;-74
2021/06/16 06:02:00;;;;;;;;;;;;;;;-142.75;53.13;76515.19;5012261;28;19977;-75
2021/06/16 06:04:26;;;;;;;;;;;;;;;-142.75;52.41;76493.53;5011987;28;19961;-74
2021/06/16 06:06:51;;;;;;;;;;;;;;;-142.75;51.63;76477.78;5012187;28;19914;-74
2021/06/16 06:09:16;;;;;;;;;;;;;;;-142.75;52.30;76465.97;5010482;28;20360;-75
2021/06/16 06:11:41;;;;;;;;;;;;;;;-142.75;51.50;76428.56;5009207;28;20441;-73
2021/06/16 06:14:07;;;;;;;;;;;;;;;-142.75;51.33;76395.09;5010606;28;20310;-74
2021/06/16 06:16:32;;;;;;;;;;;;;;;-142.75;51.53;76373.44;5011791;28;19929;-74
2021/06/16 06:18:57;;;;;;;;;;;;;;;-142.75;50.60;76341.97;5011012;28;19918;-74
2021/06/16 06:21:23;;;;;;;;;;;;;;;-142.75;50.45;76316.38;5010556;28;19914;-74
2021/06/16 06:23:49;;;;;;;;;;;;;;;-142.75;50.20;76302.59;5012201;28;19921;-74
2021/06/16 06:26:14;;;;;;;;;;;;;;;-142.75;50.25;76286.84;5012203;28;19913;-74
2021/06/16 06:28:40;;;;;;;;;;;;;;;-142.75;49.45;76267.16;5012305;28;19960;-74
2021/06/16 06:31:05;;;;;;;;;;;;;;;-142.75;49.58;76231.72;5010262;28;19916;-75
2021/06/16 06:33:31;;;;;;;;;;;;;;;-142.75;48.94;76212.03;5011791;28;19913;-74
2021/06/16 06:35:56;;;;;;;;;;;;;;;-142.75;48.17;76194.34;5012121;28;19914;-74
2021/06/16 06:38:21;;;;;;;;;;;;;;;-142.75;47.80;76153.00;5011915;28;19936;-74
2021/06/16 06:40:46;;;;;;;;;;;;;;;-142.75;47.71;76135.28;5011637;28;19988;-75
2021/06/16 06:43:11;;;;;;;;;;;;;;;-142.75;46.85;76117.56;5010633;28;19917;-74
2021/06/16 06:45:37;;;;;;;;;;;;;;;-142.75;47.24;76082.13;5011810;28;19920;-75
2021/06/16 06:48:02;;;;;;;;;;;;;;;-142.75;46.50;76052.63;5011826;28;19914;-74
2021/06/16 06:50:27;;;;;;;;;;;;;;;-142.75;46.19;76019.16;5011444;28;19913;-74
2021/06/16 06:52:52;;;;;;;;;;;;;;;-142.75;45.70;75995.53;5010523;28;19913;-74
2021/06/16 06:55:18;;;;;;;;;;;;;;;-142.75;45.39;75983.72;5011825;28;20330;-75
2021/06/16 06:57:44;;;;;;;;;;;;;;;-142.75;45.28;75952.25;5011568;28;19960;-74
2021/06/16 07:00:09;;;;;;;;;;;;;;;-142.75;44.25;75948.31;5011589;28;19924;-74
2021/06/16 07:02:35;;;;;;;;;;;;;;;-142.75;44.29;75899.09;5011605;28;20008;-74
2021/06/16 07:05:00;;;;;;;;;;;;;;;-142.75;44.29;75855.81;5011727;28;19921;-74
2021/06/16 07:07:26;;;;;;;;;;;;;;;-142.75;44.02;75849.91;5010439;28;20298;-74
2021/06/16 07:09:51;;;;;;;;;;;;;;;-142.75;43.28;75820.38;5009983;28;19917;-73
2021/06/16 07:12:16;;;;;;;;;;;;;;;-142.75;42.86;75806.59;5011508;28;20429;-74
2021/06/16 07:14:42;;;;;;;;;;;;;;;-142.75;42.38;75782.97;5011312;28;19920;-74
2021/06/16 07:17:07;;;;;;;;;;;;;;;-142.75;42.19;75767.22;5010319;28;19960;-75
2021/06/16 07:19:33;;;;;;;;;;;;;;;-142.75;42.35;75747.56;5011535;28;19913;-75
2021/06/16 07:21:58;;;;;;;;;;;;;;;-142.75;42.48;75753.47;5011372;28;19918;-74
2021/06/16 07:24:23;;;;;;;;;;;;;;;-142.75;41.11;75706.22;5011348;28;19936;-75
2021/06/16 07:26:48;;;;;;;;;;;;;;;-142.75;40.29;75698.34;5011497;28;19913;-73
2021/06/16 07:29:13;;;;;;;;;;;;;;;-142.75;39.96;75666.88;5010192;28;20268;-74
2021/06/16 07:31:39;;;;;;;;;;;;;;;-142.75;39.67;75643.25;5009862;28;19924;-75
2021/06/16 07:34:04;;;;;;;;;;;;;;;-142.75;38.89;75621.59;5011486;28;19963;-74
2021/06/16 07:36:29;;;;;;;;;;;;;;;-142.75;39.77;75625.53;5011247;28;20302;-75
2021/06/16 07:38:54;;;;;;;;;;;;;;;-142.75;38.62;75609.78;5010051;28;20007;-75
2021/06/16 07:41:20;;;;;;;;;;;;;;;-142.75;39.16;75621.59;5010923;28;19924;-75
2021/06/16 07:43:45;;;;;;;;;;;;;;;-142.75;39.92;75653.09;5010618;28;20549;-74
2021/06/16 07:46:10;;;;;;;;;;;;;;;-142.75;38.34;75560.59;5014093;28;19921;-74
2021/06/16 07:48:35;;;;;;;;;;;;;;;-142.75;38.76;75562.56;5015248;28;19944;-75
2021/06/16 07:51:00;;;;;;;;;;;;;;;-142.75;38.11;75556.66;5013550;28;20010;-74
2021/06/16 07:53:25;;;;;;;;;;;;;;;-142.75;37.35;75464.16;5013790;28;20386;-74
2021/06/16 07:55:52;;;;;;;;;;;;;;;-142.75;36.92;75513.38;5014930;28;19913;-75
2021/06/16 07:58:17;;;;;;;;;;;;;;;-142.75;37.64;75487.78;5014887;28;20016;-76
2021/06/16 08:00:43;;;;;;;;;;;;;;;-142.75;36.45;75483.84;5014623;28;20335;-75
2021/06/16 08:03:08;;;;;;;;;;;;;;;-142.75;36.89;75495.66;5013835;28;19932;-75
2021/06/16 08:05:33;;;;;;;;;;;;;;;-142.75;36.14;75472.03;5015311;28;19959;-75
2021/06/16 08:07:58;;;;;;;;;;;;;;;-142.75;36.59;75448.41;5014012;28;19949;-75
2021/06/16 08:10:23;;;;;;;;;;;;;;;-142.75;35.93;75401.19;5013231;28;19953;-75
2021/06/16 08:12:49;;;;;;;;;;;;;;;-142.75;35.96;75395.28;5015021;28;19963;-76
2021/06/16 08:15:14;;;;;;;;;;;;;;;-142.75;35.92;75401.19;5014684;28;20341;-75
2021/06/16 08:17:39;;;;;;;;;;;;;;;-142.75;37.48;75401.19;5013568;28;20399;-75
2021/06/16 08:20:06;;;;;;;;;;;;;;;-142.75;35.67;75381.50;5012912;28;19975;-75
2021/06/16 08:22:31;;;;;;;;;;;;;;;-142.75;35.19;75413.00;5013641;28;19920;-75
2021/06/16 08:25:00;;;;;;;;;;;;;;;-142.75;35.87;75436.59;5014756;28;20290;-75
2021/06/16 08:27:25;;;;;;;;;;;;;;;-142.75;36.12;75428.75;5013851;28;20003;-75
2021/06/16 08:29:50;;;;;;;;;;;;;;;-142.75;35.87;75448.41;5014324;28;19952;-74
2021/06/16 08:32:15;;;;;;;;;;;;;;;-142.75;36.36;75375.59;5014871;28;20070;-74
2021/06/16 08:34:41;;;;;;;;;;;;;;;-142.75;34.89;75320.50;5013280;28;20301;-74
2021/06/16 08:37:06;;;;;;;;;;;;;;;-142.75;34.29;75363.78;5014235;28;19913;-74
2021/06/16 08:39:31;;;;;;;;;;;;;;;-142.75;35.20;75346.09;5014619;28;19917;-74
2021/06/16 08:41:57;;;;;;;;;;;;;;;-142.75;34.90;75342.16;5014662;28;19917;-75
2021/06/16 08:44:22;;;;;;;;;;;;;;;-142.75;34.70;75338.22;5013433;28;19914;-75
2021/06/16 08:46:48;;;;;;;;;;;;;;;-142.75;35.10;75275.25;5013261;28;20341;-75
2021/06/16 08:49:14;;;;;;;;;;;;;;;-142.75;34.52;75259.50;5014650;28;20302;-75
2021/06/16 08:51:39;;;;;;;;;;;;;;;-142.75;34.66;75220.16;5013124;28;20016;-76
2021/06/16 08:54:05;;;;;;;;;;;;;;;-142.75;34.23;75247.69;5011859;28;19967;-74
2021/06/16 08:56:30;;;;;;;;;;;;;;;-142.75;35.93;75251.63;5013802;28;19967;-75
2021/06/16 08:58:55;;;;;;;;;;;;;;;-142.75;33.85;75182.75;5014278;28;19918;-75
2021/06/16 09:01:21;;;;;;;;;;;;;;;-142.75;34.07;75204.41;5012328;28;20385;-75
2021/06/16 09:03:47;;;;;;;;;;;;;;;-142.75;34.44;75259.50;5014107;28;19921;-75
2021/06/16 09:06:13;;;;;;;;;;;;;;;-142.75;34.88;75257.53;5014834;28;20394;-76
2021/06/16 09:08:51;;;;;;;;;;;;;;;-142.75;35.09;75216.22;5013824;28;19913;-75
2021/06/16 09:11:17;;;;;;;;;;;;;;;-142.75;33.53;75168.97;5011456;28;19972;-75
2021/06/16 09:13:42;;;;;;;;;;;;;;;-142.75;34.25;75196.53;5013827;28;19952;-75
2021/06/16 09:16:24;;;;;;;;;;;;;;;-142.75;33.43;75135.53;5013555;28;19913;-74
2021/06/16 09:18:49;;;;;;;;;;;;;;;-142.75;33.60;75182.75;5012436;28;19925;-75
2021/06/16 09:21:16;;;;;;;;;;;;;;;-142.75;33.45;75139.47;5013494;28;19913;-75
2021/06/16 09:23:42;;;;;;;;;;;;;;;-142.75;34.27;75167.00;5012450;28;19913;-76
2021/06/16 09:26:11;;;;;;;;;;;;;;;-142.75;33.66;75184.72;5013879;28;19936;-75
2021/06/16 09:28:39;;;;;;;;;;;;;;;-142.75;33.09;75139.47;5013409;28;19920;-76
2021/06/16 09:31:05;;;;;;;;;;;;;;;-142.75;34.17;75157.19;5013183;28;20391;-75
2021/06/16 09:33:30;;;;;;;;;;;;;;;-142.75;33.78;75106.00;5013661;28;19956;-76
2021/06/16 09:35:56;;;;;;;;;;;;;;;-142.75;32.66;75106.00;5013693;28;19913;-75
2021/06/16 09:38:22;;;;;;;;;;;;;;;-142.75;33.47;75098.16;5013465;28;19918;-75
2021/06/16 09:40:47;;;;;;;;;;;;;;;-142.75;33.72;75096.19;5011749;28;20294;-75
2021/06/16 09:43:16;;;;;;;;;;;;;;;-142.75;33.34;75172.91;5011956;28;20000;-75
2021/06/16 09:45:44;;;;;;;;;;;;;;;-142.75;33.75;75153.25;5013215;28;19917;-75
2021/06/16 09:48:23;;;;;;;;;;;;;;;-142.75;33.42;75072.56;5012090;28;19967;-76
2021/06/16 09:50:51;;;;;;;;;;;;;;;-142.75;33.18;75100.09;5011535;28;19914;-75
2021/06/16 09:53:16;;;;;;;;;;;;;;;-142.75;33.40;75090.28;5012062;28;19921;-76
2021/06/16 09:55:41;;;;;;;;;;;;;;;-142.75;32.64;75113.88;5012090;28;20290;-74
2021/06/16 09:58:08;;;;;;;;;;;;;;;-142.75;32.70;75106.00;5013456;28;19917;-76
2021/06/16 10:00:37;;;;;;;;;;;;;;;-142.75;32.91;75072.56;5013092;28;20019;-75
2021/06/16 10:03:16;;;;;;;;;;;;;;;-142.75;32.60;75113.88;5011806;28;19964;-74
2021/06/16 10:06:01;;;;;;;;;;;;;;;-142.75;32.95;75129.63;5013425;28;19929;-75
2021/06/16 10:08:26;;;;;;;;;;;;;;;-142.75;32.66;75048.94;5012597;28;19944;-75
2021/06/16 10:10:51;;;;;;;;;;;;;;;-142.75;33.47;75050.91;5012034;28;20335;-75
2021/06/16 10:13:21;;;;;;;;;;;;;;;-142.75;33.50;75137.50;5013096;28;19960;-76
2021/06/16 10:15:46;;;;;;;;;;;;;;;-142.75;31.85;75054.84;5012266;28;19921;-75
2021/06/16 10:18:12;;;;;;;;;;;;;;;-142.75;32.42;75082.41;5011371;28;19953;-75
2021/06/16 10:20:37;;;;;;;;;;;;;;;-142.75;31.96;75080.44;5030520;23;19970;-75
2021/06/16 10:23:02;;;;;;;;;;;;;;;-142.75;32.94;75046.97;5013180;28;19916;-76
2021/06/16 10:25:28;;;;;;;;;;;;;;;-142.75;32.59;75025.34;5031551;28;19913;-75
2021/06/16 10:27:55;;;;;;;;;;;;;;;-142.75;34.67;74950.56;5031846;28;19917;-76
2021/06/16 10:30:21;;;;;;;;;;;;;;;-142.75;32.37;74932.84;5026794;28;19913;-76
2021/06/16 10:32:47;;;;;;;;;;;;;;;-142.75;32.43;74919.09;5011979;28;19913;-76
2021/06/16 10:35:13;;;;;;;;;;;;;;;-142.75;32.27;74993.84;4996052;28;19968;-76
2021/06/16 10:37:40;;;;;;;;;;;;;;;-142.75;32.69;74980.06;4995512;28;19924;-77
2021/06/16 10:40:18;;;;;;;;;;;;;;;-142.75;33.38;74897.44;5009107;28;19920;-76
2021/06/16 10:42:59;;;;;;;;;;;;;;;-142.75;32.89;75017.47;4994420;28;19913;-76
2021/06/16 10:45:27;;;;;;;;;;;;;;;-142.75;33.16;75048.94;5010833;28;20000;-75
2021/06/16 10:47:56;;;;;;;;;;;;;;;-142.75;32.36;74999.75;4994216;28;19921;-76
2021/06/16 10:50:21;;;;;;;;;;;;;;;-142.75;31.78;74950.56;4993710;28;20417;-76
2021/06/16 10:53:02;;;;;;;;;;;;;;;-142.75;33.06;75025.34;5009158;28;19913;-76
2021/06/16 10:55:47;;;;;;;;;;;;;;;-142.75;32.82;74995.81;4987460;28;20071;-75
2021/06/16 10:58:16;;;;;;;;;;;;;;;-142.75;32.79;74993.84;4976560;28;19917;-76
2021/06/16 11:00:41;;;;;;;;;;;;;;;-142.75;33.57;75027.31;4974326;28;19913;-75
2021/06/16 11:03:07;;;;;;;;;;;;;;;-142.75;32.85;74989.91;4982822;28;20393;-77
2021/06/16 11:05:33;;;;;;;;;;;;;;;-142.75;32.37;74946.63;4978622;28;20003;-76
2021/06/16 11:08:00;;;;;;;;;;;;;;;-142.75;32.41;74960.41;5009450;28;19922;-77
2021/06/16 11:10:45;;;;;;;;;;;;;;;-142.75;32.72;75011.56;4999651;28;20009;-77
2021/06/16 11:13:30;;;;;;;;;;;;;;;-142.75;31.88;74972.22;5010838;28;19975;-77
2021/06/16 11:15:55;;;;;;;;;;;;;;;-142.75;32.87;74803.00;4993428;28;19959;-77
2021/06/16 11:18:27;;;;;;;;;;;;;;;-142.75;31.51;74773.47;4993612;28;19921;-76
2021/06/16 11:20:57;;;;;;;;;;;;;;;-142.75;32.69;74850.22;4993277;28;19914;-76
2021/06/16 11:23:24;;;;;;;;;;;;;;;-142.75;33.52;74903.34;4993901;28;19967;-77
2021/06/16 11:25:51;;;;;;;;;;;;;;;-142.75;32.43;74950.56;4993781;28;20298;-76
2021/06/16 11:28:20;;;;;;;;;;;;;;;-142.75;32.47;74978.13;4993629;28;19955;-77
2021/06/16 11:30:47;;;;;;;;;;;;;;;-142.75;32.85;74897.44;5010904;28;19913;-77
2021/06/16 11:33:12;;;;;;;;;;;;;;;-142.75;32.67;74850.22;5011281;28;19914;-76
2021/06/16 11:35:44;;;;;;;;;;;;;;;-142.75;33.88;74869.88;5011382;28;19983;-75
2021/06/16 11:38:10;;;;;;;;;;;;;;;-142.75;33.14;74924.97;4993600;28;19917;-77
2021/06/16 11:40:36;;;;;;;;;;;;;;;-142.75;33.72;74858.09;4993391;28;19964;-76
2021/06/16 11:43:01;;;;;;;;;;;;;;;-142.75;34.49;74907.28;4993656;28;19948;-76
2021/06/16 11:45:33;;;;;;;;;;;;;;;-142.75;33.25;74936.78;5011016;28;19913;-76
2021/06/16 11:47:59;;;;;;;;;;;;;;;-142.75;32.06;74850.22;4993571;28;20375;-76
2021/06/16 11:50:34;;;;;;;;;;;;;;;-142.75;32.88;74791.19;4993092;28;19913;-77
2021/06/16 11:53:05;;;;;;;;;;;;;;;-142.75;34.14;74885.63;4993519;28;20264;-76
2021/06/16 11:55:44;;;;;;;;;;;;;;;-142.75;34.53;74808.91;4993447;28;19913;-75
2021/06/16 11:58:19;;;;;;;;;;;;;;;-142.75;32.45;74765.59;4993588;28;20278;-74
2021/06/16 12:00:44;;;;;;;;;;;;;;;-142.75;33.26;74950.56;4993163;28;19917;-76
2021/06/16 12:03:14;;;;;;;;;;;;;;;-142.75;34.65;75037.16;4993530;28;19963;-75
2021/06/16 12:05:39;;;;;;;;;;;;;;;-142.75;34.12;74879.72;5011030;28;19959;-76
2021/06/16 12:08:04;;;;;;;;;;;;;;;-142.75;34.17;74826.59;4993500;28;19921;-76
2021/06/16 12:10:29;;;;;;;;;;;;;;;-142.75;34.33;74924.97;4992974;28;19998;-76
2021/06/16 12:12:55;;;;;;;;;;;;;;;-142.75;35.18;74905.31;4993308;28;19913;-77
2021/06/16 12:15:27;;;;;;;;;;;;;;;-142.75;34.12;74964.34;4992778;28;20315;-76
2021/06/16 12:17:55;;;;;;;;;;;;;;;-142.75;34.99;75037.16;5010842;28;20012;-76
2021/06/16 12:20:21;;;;;;;;;;;;;;;-142.75;36.25;75046.97;4992684;28;19920;-76
2021/06/16 12:22:46;;;;;;;;;;;;;;;-142.75;35.26;75070.59;5010770;28;19913;-77
2021/06/16 12:25:30;;;;;;;;;;;;;;;-142.75;35.71;75102.06;4993350;28;19964;-76